sensor_id;sensor_type;location;lat;lon;timestamp;temperature;humidity
20698;DHT22;10508;50.956;4.640;2023-04-03T00:00:04;3.20;99.90
20698;DHT22;10508;50.956;4.640;2023-04-03T00:02:49;3.30;99.90
20698;DHT22;10508;50.956;4.640;2023-04-03T00:05:14;3.30;99.90
20698;DHT22;10508;50.956;4.640;2023-04-03T00:07:40;3.30;99.90
20698;DHT22;10508;50.956;4.640;2023-04-03T00:10:06;3.30;99.90
20698;DHT22;10508;50.956;4.640;2023-04-03T00:12:32;3.30;99.90
20698;DHT22;10508;50.956;4.640;2023-04-03T00:14:58;3.30;99.90
20698;DHT22;10508;50.956;4.640;2023-04-03T00:17:23;3.20;99.90
20698;DHT22;10508;50.956;4.640;2023-04-03T00:19:49;3.20;99.90
20698;DHT22;10508;50.956;4.640;2023-04-03T00:22:15;3.10;99.90
20698;DHT22;10508;50.956;4.640;2023-04-03T00:24:40;3.10;99.90
20698;DHT22;10508;50.956;4.640;2023-04-03T00:27:06;3.10;99.90
20698;DHT22;10508;50.956;4.640;2023-04-03T00:29:31;3.00;99.90
20698;DHT22;10508;50.956;4.640;2023-04-03T00:32:15;3.00;99.90
20698;DHT22;10508;50.956;4.640;2023-04-03T00:34:41;3.00;99.90
20698;DHT22;10508;50.956;4.640;2023-04-03T00:37:07;3.00;99.90
20698;DHT22;10508;50.956;4.640;2023-04-03T00:39:32;3.00;99.90
20698;DHT22;10508;50.956;4.640;2023-04-03T00:41:58;3.00;99.90
20698;DHT22;10508;50.956;4.640;2023-04-03T00:46:58;3.00;99.90
20698;DHT22;10508;50.956;4.640;2023-04-03T00:49:24;3.10;99.90
20698;DHT22;10508;50.956;4.640;2023-04-03T00:51:50;3.00;99.90
20698;DHT22;10508;50.956;4.640;2023-04-03T00:54:16;3.00;99.90
20698;DHT22;10508;50.956;4.640;2023-04-03T00:56:42;3.00;99.90
20698;DHT22;10508;50.956;4.640;2023-04-03T00:59:15;3.00;99.90
20698;DHT22;10508;50.956;4.640;2023-04-03T01:01:42;2.90;99.90
20698;DHT22;10508;50.956;4.640;2023-04-03T01:04:33;2.90;99.90
20698;DHT22;10508;50.956;4.640;2023-04-03T01:07:02;3.00;99.90
20698;DHT22;10508;50.956;4.640;2023-04-03T01:09:29;3.10;99.90
20698;DHT22;10508;50.956;4.640;2023-04-03T01:12:22;3.10;99.90
20698;DHT22;10508;50.956;4.640;2023-04-03T01:14:51;3.10;99.90
20698;DHT22;10508;50.956;4.640;2023-04-03T01:17:56;3.10;99.90
20698;DHT22;10508;50.956;4.640;2023-04-03T01:25:52;3.20;99.90
20698;DHT22;10508;50.956;4.640;2023-04-03T01:28:22;3.20;99.90
20698;DHT22;10508;50.956;4.640;2023-04-03T01:31:02;3.20;99.90
20698;DHT22;10508;50.956;4.640;2023-04-03T01:33:31;3.20;99.90
20698;DHT22;10508;50.956;4.640;2023-04-03T01:35:57;3.20;99.90
20698;DHT22;10508;50.956;4.640;2023-04-03T01:38:23;3.20;99.90
20698;DHT22;10508;50.956;4.640;2023-04-03T01:40:48;3.10;99.90
20698;DHT22;10508;50.956;4.640;2023-04-03T01:43:14;3.20;99.90
20698;DHT22;10508;50.956;4.640;2023-04-03T01:45:40;2.70;99.90
20698;DHT22;10508;50.956;4.640;2023-04-03T01:48:06;3.10;99.90
20698;DHT22;10508;50.956;4.640;2023-04-03T01:50:31;3.10;99.90
20698;DHT22;10508;50.956;4.640;2023-04-03T01:53:16;2.90;99.90
20698;DHT22;10508;50.956;4.640;2023-04-03T01:55:41;3.00;99.90
20698;DHT22;10508;50.956;4.640;2023-04-03T01:58:07;2.90;99.90
20698;DHT22;10508;50.956;4.640;2023-04-03T02:00:32;2.90;99.90
20698;DHT22;10508;50.956;4.640;2023-04-03T02:02:58;2.80;99.90
20698;DHT22;10508;50.956;4.640;2023-04-03T02:05:24;3.10;99.90
20698;DHT22;10508;50.956;4.640;2023-04-03T02:07:50;2.60;99.90
20698;DHT22;10508;50.956;4.640;2023-04-03T02:10:16;2.60;99.90
20698;DHT22;10508;50.956;4.640;2023-04-03T02:12:41;2.40;99.90
20698;DHT22;10508;50.956;4.640;2023-04-03T02:15:07;2.60;99.90
20698;DHT22;10508;50.956;4.640;2023-04-03T02:17:33;2.40;99.90
20698;DHT22;10508;50.956;4.640;2023-04-03T02:19:59;2.30;99.90
20698;DHT22;10508;50.956;4.640;2023-04-03T02:22:25;2.30;99.90
20698;DHT22;10508;50.956;4.640;2023-04-03T02:24:51;2.20;99.90
20698;DHT22;10508;50.956;4.640;2023-04-03T02:27:17;2.20;99.90
20698;DHT22;10508;50.956;4.640;2023-04-03T02:32:12;2.30;99.90
20698;DHT22;10508;50.956;4.640;2023-04-03T02:34:58;1.60;99.90
20698;DHT22;10508;50.956;4.640;2023-04-03T02:37:24;2.20;99.90
20698;DHT22;10508;50.956;4.640;2023-04-03T02:39:52;2.10;99.90
20698;DHT22;10508;50.956;4.640;2023-04-03T02:42:19;2.20;99.90
20698;DHT22;10508;50.956;4.640;2023-04-03T02:44:45;2.20;99.90
20698;DHT22;10508;50.956;4.640;2023-04-03T02:47:11;2.30;99.90
20698;DHT22;10508;50.956;4.640;2023-04-03T02:49:36;2.30;99.90
20698;DHT22;10508;50.956;4.640;2023-04-03T02:52:02;2.20;99.90
20698;DHT22;10508;50.956;4.640;2023-04-03T02:54:28;2.20;99.90
20698;DHT22;10508;50.956;4.640;2023-04-03T02:56:56;2.10;99.90
20698;DHT22;10508;50.956;4.640;2023-04-03T02:59:22;2.20;99.90
20698;DHT22;10508;50.956;4.640;2023-04-03T03:01:48;2.10;99.90
20698;DHT22;10508;50.956;4.640;2023-04-03T03:04:13;2.10;99.90
20698;DHT22;10508;50.956;4.640;2023-04-03T03:06:39;1.80;99.90
20698;DHT22;10508;50.956;4.640;2023-04-03T03:09:05;2.00;99.90
20698;DHT22;10508;50.956;4.640;2023-04-03T03:28:39;2.00;99.90
20698;DHT22;10508;50.956;4.640;2023-04-03T03:31:06;2.00;99.90
20698;DHT22;10508;50.956;4.640;2023-04-03T03:33:32;2.00;99.90
20698;DHT22;10508;50.956;4.640;2023-04-03T03:35:59;1.90;99.90
20698;DHT22;10508;50.956;4.640;2023-04-03T03:38:27;1.90;99.90
20698;DHT22;10508;50.956;4.640;2023-04-03T03:40:53;1.90;99.90
20698;DHT22;10508;50.956;4.640;2023-04-03T03:43:19;1.90;99.90
20698;DHT22;10508;50.956;4.640;2023-04-03T03:45:50;1.90;99.90
20698;DHT22;10508;50.956;4.640;2023-04-03T03:48:16;2.00;99.90
20698;DHT22;10508;50.956;4.640;2023-04-03T03:50:44;1.60;99.90
20698;DHT22;10508;50.956;4.640;2023-04-03T03:53:10;1.90;99.90
20698;DHT22;10508;50.956;4.640;2023-04-03T03:55:36;1.90;99.90
20698;DHT22;10508;50.956;4.640;2023-04-03T03:58:01;1.80;99.90
20698;DHT22;10508;50.956;4.640;2023-04-03T04:00:42;1.80;99.90
20698;DHT22;10508;50.956;4.640;2023-04-03T04:03:07;1.80;99.90
20698;DHT22;10508;50.956;4.640;2023-04-03T04:05:33;1.80;99.90
20698;DHT22;10508;50.956;4.640;2023-04-03T04:07:59;1.70;99.90
20698;DHT22;10508;50.956;4.640;2023-04-03T04:10:24;1.80;99.90
20698;DHT22;10508;50.956;4.640;2023-04-03T04:12:50;1.80;99.90
20698;DHT22;10508;50.956;4.640;2023-04-03T04:15:16;1.80;99.90
20698;DHT22;10508;50.956;4.640;2023-04-03T04:17:42;1.90;99.90
20698;DHT22;10508;50.956;4.640;2023-04-03T04:20:08;1.90;99.90
20698;DHT22;10508;50.956;4.640;2023-04-03T04:22:34;1.90;99.90
20698;DHT22;10508;50.956;4.640;2023-04-03T04:25:00;1.90;99.90
20698;DHT22;10508;50.956;4.640;2023-04-03T04:27:25;1.90;99.90
20698;DHT22;10508;50.956;4.640;2023-04-03T04:29:51;1.40;99.90
20698;DHT22;10508;50.956;4.640;2023-04-03T04:32:16;2.00;99.90
20698;DHT22;10508;50.956;4.640;2023-04-03T04:34:42;1.90;99.90
20698;DHT22;10508;50.956;4.640;2023-04-03T04:37:08;1.80;99.90
20698;DHT22;10508;50.956;4.640;2023-04-03T04:39:33;1.70;99.90
20698;DHT22;10508;50.956;4.640;2023-04-03T04:41:59;1.60;99.90
20698;DHT22;10508;50.956;4.640;2023-04-03T04:44:25;1.60;99.90
20698;DHT22;10508;50.956;4.640;2023-04-03T04:46:51;1.50;99.90
20698;DHT22;10508;50.956;4.640;2023-04-03T04:49:16;1.60;99.90
20698;DHT22;10508;50.956;4.640;2023-04-03T04:51:42;1.60;99.90
20698;DHT22;10508;50.956;4.640;2023-04-03T04:54:07;1.50;99.90
20698;DHT22;10508;50.956;4.640;2023-04-03T04:56:33;1.60;99.90
20698;DHT22;10508;50.956;4.640;2023-04-03T04:58:59;1.60;99.90
20698;DHT22;10508;50.956;4.640;2023-04-03T05:01:24;1.80;99.90
20698;DHT22;10508;50.956;4.640;2023-04-03T05:03:50;1.50;99.90
20698;DHT22;10508;50.956;4.640;2023-04-03T05:06:16;1.60;99.90
20698;DHT22;10508;50.956;4.640;2023-04-03T05:08:41;1.70;99.90
20698;DHT22;10508;50.956;4.640;2023-04-03T05:11:07;1.60;99.90
20698;DHT22;10508;50.956;4.640;2023-04-03T05:13:32;1.60;99.90
20698;DHT22;10508;50.956;4.640;2023-04-03T05:15:58;1.40;99.90
20698;DHT22;10508;50.956;4.640;2023-04-03T05:18:24;1.40;99.90
20698;DHT22;10508;50.956;4.640;2023-04-03T05:20:50;1.50;99.90
20698;DHT22;10508;50.956;4.640;2023-04-03T05:23:16;1.50;99.90
20698;DHT22;10508;50.956;4.640;2023-04-03T05:25:41;1.70;99.90
20698;DHT22;10508;50.956;4.640;2023-04-03T05:28:09;1.40;99.90
20698;DHT22;10508;50.956;4.640;2023-04-03T05:30:35;1.40;99.90
20698;DHT22;10508;50.956;4.640;2023-04-03T05:33:00;1.20;99.90
20698;DHT22;10508;50.956;4.640;2023-04-03T05:35:26;1.20;99.90
20698;DHT22;10508;50.956;4.640;2023-04-03T05:37:52;1.20;99.90
20698;DHT22;10508;50.956;4.640;2023-04-03T05:40:17;1.40;99.90
20698;DHT22;10508;50.956;4.640;2023-04-03T05:42:44;1.50;99.90
20698;DHT22;10508;50.956;4.640;2023-04-03T05:45:10;1.70;99.90
20698;DHT22;10508;50.956;4.640;2023-04-03T05:47:35;1.50;99.90
20698;DHT22;10508;50.956;4.640;2023-04-03T05:50:01;1.50;99.90
20698;DHT22;10508;50.956;4.640;2023-04-03T05:52:35;1.60;99.90
20698;DHT22;10508;50.956;4.640;2023-04-03T05:55:02;1.40;99.90
20698;DHT22;10508;50.956;4.640;2023-04-03T05:57:28;1.60;99.90
20698;DHT22;10508;50.956;4.640;2023-04-03T05:59:53;1.70;99.90
20698;DHT22;10508;50.956;4.640;2023-04-03T06:02:21;1.80;99.90
20698;DHT22;10508;50.956;4.640;2023-04-03T06:04:47;2.20;99.90
20698;DHT22;10508;50.956;4.640;2023-04-03T06:07:18;1.90;99.90
20698;DHT22;10508;50.956;4.640;2023-04-03T06:09:46;2.20;99.90
20698;DHT22;10508;50.956;4.640;2023-04-03T06:12:12;2.00;99.90
20698;DHT22;10508;50.956;4.640;2023-04-03T06:14:38;2.00;99.90
20698;DHT22;10508;50.956;4.640;2023-04-03T06:17:03;1.90;99.90
20698;DHT22;10508;50.956;4.640;2023-04-03T06:19:29;2.10;99.90
20698;DHT22;10508;50.956;4.640;2023-04-03T06:21:55;2.40;99.90
20698;DHT22;10508;50.956;4.640;2023-04-03T06:24:21;2.30;99.90
20698;DHT22;10508;50.956;4.640;2023-04-03T06:26:48;2.40;99.90
20698;DHT22;10508;50.956;4.640;2023-04-03T06:29:16;2.40;99.90
20698;DHT22;10508;50.956;4.640;2023-04-03T06:31:42;2.70;99.90
20698;DHT22;10508;50.956;4.640;2023-04-03T06:34:09;2.60;99.90
20698;DHT22;10508;50.956;4.640;2023-04-03T06:36:36;2.60;99.90
20698;DHT22;10508;50.956;4.640;2023-04-03T06:39:02;2.70;99.90
20698;DHT22;10508;50.956;4.640;2023-04-03T06:41:28;2.80;99.90
20698;DHT22;10508;50.956;4.640;2023-04-03T06:43:54;2.90;99.90
20698;DHT22;10508;50.956;4.640;2023-04-03T06:46:22;2.90;99.90
20698;DHT22;10508;50.956;4.640;2023-04-03T06:48:48;3.00;99.90
20698;DHT22;10508;50.956;4.640;2023-04-03T06:51:24;3.00;99.90
20698;DHT22;10508;50.956;4.640;2023-04-03T06:53:51;3.10;99.90
20698;DHT22;10508;50.956;4.640;2023-04-03T06:56:18;3.30;99.90
20698;DHT22;10508;50.956;4.640;2023-04-03T06:58:44;3.30;99.90
20698;DHT22;10508;50.956;4.640;2023-04-03T07:01:12;3.40;99.90
20698;DHT22;10508;50.956;4.640;2023-04-03T07:03:38;3.40;99.90
20698;DHT22;10508;50.956;4.640;2023-04-03T07:06:05;3.40;99.90
20698;DHT22;10508;50.956;4.640;2023-04-03T07:08:33;3.40;99.90
20698;DHT22;10508;50.956;4.640;2023-04-03T07:10:59;3.50;99.90
20698;DHT22;10508;50.956;4.640;2023-04-03T07:13:25;3.50;99.90
20698;DHT22;10508;50.956;4.640;2023-04-03T07:15:51;3.50;99.90
20698;DHT22;10508;50.956;4.640;2023-04-03T07:18:16;3.70;99.90
20698;DHT22;10508;50.956;4.640;2023-04-03T07:20:43;3.70;99.90
20698;DHT22;10508;50.956;4.640;2023-04-03T07:23:08;3.80;99.90
20698;DHT22;10508;50.956;4.640;2023-04-03T07:25:34;3.80;99.90
20698;DHT22;10508;50.956;4.640;2023-04-03T07:28:00;3.90;99.90
20698;DHT22;10508;50.956;4.640;2023-04-03T07:30:25;3.90;99.90
20698;DHT22;10508;50.956;4.640;2023-04-03T07:32:51;4.00;99.90
20698;DHT22;10508;50.956;4.640;2023-04-03T07:35:17;4.00;99.90
20698;DHT22;10508;50.956;4.640;2023-04-03T07:37:43;4.10;99.90
20698;DHT22;10508;50.956;4.640;2023-04-03T07:40:09;4.10;99.90
20698;DHT22;10508;50.956;4.640;2023-04-03T07:42:35;4.20;99.90
20698;DHT22;10508;50.956;4.640;2023-04-03T07:45:05;4.40;99.90
20698;DHT22;10508;50.956;4.640;2023-04-03T07:47:31;4.40;99.90
20698;DHT22;10508;50.956;4.640;2023-04-03T07:49:57;4.50;99.90
20698;DHT22;10508;50.956;4.640;2023-04-03T07:52:23;4.60;99.90
20698;DHT22;10508;50.956;4.640;2023-04-03T07:54:49;4.70;99.90
20698;DHT22;10508;50.956;4.640;2023-04-03T07:57:15;4.70;99.90
20698;DHT22;10508;50.956;4.640;2023-04-03T07:59:41;4.80;99.90
20698;DHT22;10508;50.956;4.640;2023-04-03T08:02:11;5.00;99.90
20698;DHT22;10508;50.956;4.640;2023-04-03T08:04:37;5.10;99.90
20698;DHT22;10508;50.956;4.640;2023-04-03T08:07:02;5.10;99.90
20698;DHT22;10508;50.956;4.640;2023-04-03T08:09:28;5.20;99.90
20698;DHT22;10508;50.956;4.640;2023-04-03T08:11:53;5.30;99.90
20698;DHT22;10508;50.956;4.640;2023-04-03T08:14:20;5.40;99.90
20698;DHT22;10508;50.956;4.640;2023-04-03T08:16:47;5.60;99.90
20698;DHT22;10508;50.956;4.640;2023-04-03T08:19:14;5.60;99.90
20698;DHT22;10508;50.956;4.640;2023-04-03T08:21:42;5.80;99.90
20698;DHT22;10508;50.956;4.640;2023-04-03T08:24:08;6.00;99.90
20698;DHT22;10508;50.956;4.640;2023-04-03T08:26:34;6.10;99.90
20698;DHT22;10508;50.956;4.640;2023-04-03T08:29:00;6.10;99.90
20698;DHT22;10508;50.956;4.640;2023-04-03T08:31:26;6.20;99.90
20698;DHT22;10508;50.956;4.640;2023-04-03T08:33:52;6.30;99.90
20698;DHT22;10508;50.956;4.640;2023-04-03T08:36:29;6.50;99.90
20698;DHT22;10508;50.956;4.640;2023-04-03T08:38:56;6.70;99.90
20698;DHT22;10508;50.956;4.640;2023-04-03T08:41:27;6.90;99.90
20698;DHT22;10508;50.956;4.640;2023-04-03T08:49:44;7.40;99.90
20698;DHT22;10508;50.956;4.640;2023-04-03T08:55:13;7.70;99.90
20698;DHT22;10508;50.956;4.640;2023-04-03T08:57:43;7.60;99.90
20698;DHT22;10508;50.956;4.640;2023-04-03T09:00:22;7.80;99.90
20698;DHT22;10508;50.956;4.640;2023-04-03T09:02:50;8.00;99.90
20698;DHT22;10508;50.956;4.640;2023-04-03T09:06:06;8.30;99.90
20698;DHT22;10508;50.956;4.640;2023-04-03T09:08:22;8.30;99.90
20698;DHT22;10508;50.956;4.640;2023-04-03T09:10:49;8.60;99.90
20698;DHT22;10508;50.956;4.640;2023-04-03T09:13:33;8.80;99.90
20698;DHT22;10508;50.956;4.640;2023-04-03T09:16:16;8.90;99.60
20698;DHT22;10508;50.956;4.640;2023-04-03T09:18:51;9.10;99.40
20698;DHT22;10508;50.956;4.640;2023-04-03T09:21:30;9.30;99.30
20698;DHT22;10508;50.956;4.640;2023-04-03T09:23:59;9.60;98.60
20698;DHT22;10508;50.956;4.640;2023-04-03T09:26:30;9.80;97.10
20698;DHT22;10508;50.956;4.640;2023-04-03T09:29:01;10.00;97.90
20698;DHT22;10508;50.956;4.640;2023-04-03T09:31:30;10.10;97.80
20698;DHT22;10508;50.956;4.640;2023-04-03T09:34:04;10.40;97.60
20698;DHT22;10508;50.956;4.640;2023-04-03T09:36:39;10.40;96.50
20698;DHT22;10508;50.956;4.640;2023-04-03T09:39:17;10.40;96.10
20698;DHT22;10508;50.956;4.640;2023-04-03T09:44:37;10.80;95.50
20698;DHT22;10508;50.956;4.640;2023-04-03T09:47:27;10.70;95.70
20698;DHT22;10508;50.956;4.640;2023-04-03T09:52:34;10.80;96.40
20698;DHT22;10508;50.956;4.640;2023-04-03T09:55:13;10.90;97.40
20698;DHT22;10508;50.956;4.640;2023-04-03T09:57:39;11.00;96.20
20698;DHT22;10508;50.956;4.640;2023-04-03T10:00:06;10.90;95.80
20698;DHT22;10508;50.956;4.640;2023-04-03T10:02:44;11.30;95.50
20698;DHT22;10508;50.956;4.640;2023-04-03T10:05:31;11.40;94.70
20698;DHT22;10508;50.956;4.640;2023-04-03T10:10:43;11.90;93.30
20698;DHT22;10508;50.956;4.640;2023-04-03T10:13:20;12.10;93.80
20698;DHT22;10508;50.956;4.640;2023-04-03T10:16:03;12.10;94.10
20698;DHT22;10508;50.956;4.640;2023-04-03T10:21:40;12.50;93.00
20698;DHT22;10508;50.956;4.640;2023-04-03T10:24:28;12.30;92.20
20698;DHT22;10508;50.956;4.640;2023-04-03T10:26:58;12.60;92.90
20698;DHT22;10508;50.956;4.640;2023-04-03T10:32:26;12.40;91.00
20698;DHT22;10508;50.956;4.640;2023-04-03T10:43:42;13.00;87.30
20698;DHT22;10508;50.956;4.640;2023-04-03T10:46:13;13.50;89.70
20698;DHT22;10508;50.956;4.640;2023-04-03T10:51:24;13.40;86.60
20698;DHT22;10508;50.956;4.640;2023-04-03T10:56:56;13.40;84.50
20698;DHT22;10508;50.956;4.640;2023-04-03T10:59:46;12.90;85.40
20698;DHT22;10508;50.956;4.640;2023-04-03T11:02:33;13.50;87.30
20698;DHT22;10508;50.956;4.640;2023-04-03T11:05:08;13.20;83.80
20698;DHT22;10508;50.956;4.640;2023-04-03T11:07:45;13.20;86.80
20698;DHT22;10508;50.956;4.640;2023-04-03T11:10:23;13.50;83.30
20698;DHT22;10508;50.956;4.640;2023-04-03T11:13:22;13.30;84.70
20698;DHT22;10508;50.956;4.640;2023-04-03T11:15:53;13.50;86.60
20698;DHT22;10508;50.956;4.640;2023-04-03T11:18:27;13.50;88.30
20698;DHT22;10508;50.956;4.640;2023-04-03T11:23:53;13.30;86.30
20698;DHT22;10508;50.956;4.640;2023-04-03T11:26:23;13.80;87.70
20698;DHT22;10508;50.956;4.640;2023-04-03T11:29:02;13.50;83.60
20698;DHT22;10508;50.956;4.640;2023-04-03T11:31:38;13.90;83.10
20698;DHT22;10508;50.956;4.640;2023-04-03T11:36:44;13.70;80.60
20698;DHT22;10508;50.956;4.640;2023-04-03T11:39:32;13.80;79.40
20698;DHT22;10508;50.956;4.640;2023-04-03T11:42:15;13.70;81.30
20698;DHT22;10508;50.956;4.640;2023-04-03T11:44:41;13.80;80.40
20698;DHT22;10508;50.956;4.640;2023-04-03T11:47:09;13.70;81.10
20698;DHT22;10508;50.956;4.640;2023-04-03T11:49:58;14.00;81.30
20698;DHT22;10508;50.956;4.640;2023-04-03T12:00:49;14.10;78.20
20698;DHT22;10508;50.956;4.640;2023-04-03T12:05:52;14.00;76.40
20698;DHT22;10508;50.956;4.640;2023-04-03T12:08:28;13.90;74.50
20698;DHT22;10508;50.956;4.640;2023-04-03T12:16:23;14.20;73.90
20698;DHT22;10508;50.956;4.640;2023-04-03T12:41:43;14.20;68.60
20698;DHT22;10508;50.956;4.640;2023-04-03T12:46:49;13.60;65.70
20698;DHT22;10508;50.956;4.640;2023-04-03T12:51:54;13.80;70.10
20698;DHT22;10508;50.956;4.640;2023-04-03T12:54:27;14.10;68.50
20698;DHT22;10508;50.956;4.640;2023-04-03T12:57:16;14.50;70.70
20698;DHT22;10508;50.956;4.640;2023-04-03T12:59:43;14.40;68.00
20698;DHT22;10508;50.956;4.640;2023-04-03T13:02:24;14.30;67.60
20698;DHT22;10508;50.956;4.640;2023-04-03T13:04:55;14.30;68.60
20698;DHT22;10508;50.956;4.640;2023-04-03T13:10:17;14.20;65.70
20698;DHT22;10508;50.956;4.640;2023-04-03T13:15:29;13.80;67.40
20698;DHT22;10508;50.956;4.640;2023-04-03T13:17:56;13.90;68.00
20698;DHT22;10508;50.956;4.640;2023-04-03T13:20:26;13.50;71.40
20698;DHT22;10508;50.956;4.640;2023-04-03T13:22:59;13.50;66.30
20698;DHT22;10508;50.956;4.640;2023-04-03T13:25:28;13.70;68.00
20698;DHT22;10508;50.956;4.640;2023-04-03T13:27:55;14.20;69.40
20698;DHT22;10508;50.956;4.640;2023-04-03T13:30:25;14.60;67.50
20698;DHT22;10508;50.956;4.640;2023-04-03T13:32:52;14.50;67.80
20698;DHT22;10508;50.956;4.640;2023-04-03T13:37:56;14.40;65.10
20698;DHT22;10508;50.956;4.640;2023-04-03T13:40:22;14.40;68.10
20698;DHT22;10508;50.956;4.640;2023-04-03T13:42:59;14.30;64.20
20698;DHT22;10508;50.956;4.640;2023-04-03T13:45:30;14.60;66.60
20698;DHT22;10508;50.956;4.640;2023-04-03T13:48:18;14.90;65.90
20698;DHT22;10508;50.956;4.640;2023-04-03T13:51:06;14.80;63.00
20698;DHT22;10508;50.956;4.640;2023-04-03T13:53:45;14.60;65.40
20698;DHT22;10508;50.956;4.640;2023-04-03T14:04:30;14.60;64.60
20698;DHT22;10508;50.956;4.640;2023-04-03T14:06:56;14.70;66.90
20698;DHT22;10508;50.956;4.640;2023-04-03T14:09:24;15.10;63.70
20698;DHT22;10508;50.956;4.640;2023-04-03T14:11:53;14.50;64.30
20698;DHT22;10508;50.956;4.640;2023-04-03T14:14:31;14.50;64.80
20698;DHT22;10508;50.956;4.640;2023-04-03T14:17:01;14.60;66.30
20698;DHT22;10508;50.956;4.640;2023-04-03T14:19:31;14.60;64.40
20698;DHT22;10508;50.956;4.640;2023-04-03T14:21:58;14.50;68.00
20698;DHT22;10508;50.956;4.640;2023-04-03T14:24:24;14.30;71.10
20698;DHT22;10508;50.956;4.640;2023-04-03T14:26:52;14.60;68.00
20698;DHT22;10508;50.956;4.640;2023-04-03T14:29:19;14.20;63.50
20698;DHT22;10508;50.956;4.640;2023-04-03T14:31:46;14.20;61.30
20698;DHT22;10508;50.956;4.640;2023-04-03T14:34:13;14.40;65.20
20698;DHT22;10508;50.956;4.640;2023-04-03T14:36:40;14.60;65.00
20698;DHT22;10508;50.956;4.640;2023-04-03T14:39:08;14.80;63.90
20698;DHT22;10508;50.956;4.640;2023-04-03T14:41:35;15.00;65.10
20698;DHT22;10508;50.956;4.640;2023-04-03T14:44:01;14.80;60.60
20698;DHT22;10508;50.956;4.640;2023-04-03T14:46:39;14.70;62.40
20698;DHT22;10508;50.956;4.640;2023-04-03T14:49:15;14.80;64.10
20698;DHT22;10508;50.956;4.640;2023-04-03T14:51:43;14.90;63.10
20698;DHT22;10508;50.956;4.640;2023-04-03T14:54:16;15.00;61.90
20698;DHT22;10508;50.956;4.640;2023-04-03T14:56:42;14.80;60.20
20698;DHT22;10508;50.956;4.640;2023-04-03T14:59:12;14.70;65.80
20698;DHT22;10508;50.956;4.640;2023-04-03T15:01:38;14.70;63.00
20698;DHT22;10508;50.956;4.640;2023-04-03T15:04:14;14.50;60.60
20698;DHT22;10508;50.956;4.640;2023-04-03T15:06:41;14.30;62.90
20698;DHT22;10508;50.956;4.640;2023-04-03T15:09:21;14.40;62.30
20698;DHT22;10508;50.956;4.640;2023-04-03T15:11:49;14.30;60.70
20698;DHT22;10508;50.956;4.640;2023-04-03T15:14:15;14.10;63.80
20698;DHT22;10508;50.956;4.640;2023-04-03T15:16:41;14.20;62.70
20698;DHT22;10508;50.956;4.640;2023-04-03T15:19:07;14.50;63.30
20698;DHT22;10508;50.956;4.640;2023-04-03T15:21:32;14.60;64.00
20698;DHT22;10508;50.956;4.640;2023-04-03T15:23:58;14.60;64.30
20698;DHT22;10508;50.956;4.640;2023-04-03T15:26:24;14.60;61.80
20698;DHT22;10508;50.956;4.640;2023-04-03T15:28:50;14.80;62.10
20698;DHT22;10508;50.956;4.640;2023-04-03T15:31:16;14.30;62.80
20698;DHT22;10508;50.956;4.640;2023-04-03T15:33:42;14.40;63.60
20698;DHT22;10508;50.956;4.640;2023-04-03T15:36:07;14.40;64.30
20698;DHT22;10508;50.956;4.640;2023-04-03T15:38:34;14.20;61.80
20698;DHT22;10508;50.956;4.640;2023-04-03T15:41:00;14.40;61.50
20698;DHT22;10508;50.956;4.640;2023-04-03T15:43:26;13.90;59.30
20698;DHT22;10508;50.956;4.640;2023-04-03T15:45:51;14.00;61.60
20698;DHT22;10508;50.956;4.640;2023-04-03T15:48:17;13.80;61.10
20698;DHT22;10508;50.956;4.640;2023-04-03T15:50:43;13.70;63.50
20698;DHT22;10508;50.956;4.640;2023-04-03T15:53:09;14.00;63.20
20698;DHT22;10508;50.956;4.640;2023-04-03T15:55:37;14.00;61.00
20698;DHT22;10508;50.956;4.640;2023-04-03T15:58:03;14.10;61.80
20698;DHT22;10508;50.956;4.640;2023-04-03T16:00:30;13.90;60.20
20698;DHT22;10508;50.956;4.640;2023-04-03T16:03:00;13.80;62.60
20698;DHT22;10508;50.956;4.640;2023-04-03T16:05:27;13.90;61.70
20698;DHT22;10508;50.956;4.640;2023-04-03T16:07:53;13.50;63.30
20698;DHT22;10508;50.956;4.640;2023-04-03T16:10:20;13.50;64.40
20698;DHT22;10508;50.956;4.640;2023-04-03T16:12:46;13.40;65.40
20698;DHT22;10508;50.956;4.640;2023-04-03T16:15:12;13.30;66.80
20698;DHT22;10508;50.956;4.640;2023-04-03T16:17:38;13.20;65.70
20698;DHT22;10508;50.956;4.640;2023-04-03T16:20:07;13.20;68.50
20698;DHT22;10508;50.956;4.640;2023-04-03T16:22:33;12.80;66.90
20698;DHT22;10508;50.956;4.640;2023-04-03T16:25:00;12.50;63.50
20698;DHT22;10508;50.956;4.640;2023-04-03T16:27:26;12.30;65.70
20698;DHT22;10508;50.956;4.640;2023-04-03T16:29:56;12.30;67.00
20698;DHT22;10508;50.956;4.640;2023-04-03T16:32:23;12.50;66.00
20698;DHT22;10508;50.956;4.640;2023-04-03T16:34:49;12.40;65.30
20698;DHT22;10508;50.956;4.640;2023-04-03T16:37:16;12.30;66.20
20698;DHT22;10508;50.956;4.640;2023-04-03T16:39:42;12.30;68.70
20698;DHT22;10508;50.956;4.640;2023-04-03T16:42:07;12.10;65.20
20698;DHT22;10508;50.956;4.640;2023-04-03T16:44:35;11.90;67.60
20698;DHT22;10508;50.956;4.640;2023-04-03T16:47:00;11.70;66.90
20698;DHT22;10508;50.956;4.640;2023-04-03T16:49:26;11.60;66.50
20698;DHT22;10508;50.956;4.640;2023-04-03T16:51:57;11.50;67.00
20698;DHT22;10508;50.956;4.640;2023-04-03T16:54:23;11.40;67.80
20698;DHT22;10508;50.956;4.640;2023-04-03T16:56:48;11.30;67.90
20698;DHT22;10508;50.956;4.640;2023-04-03T16:59:15;11.40;68.90
20698;DHT22;10508;50.956;4.640;2023-04-03T17:01:41;11.30;69.50
20698;DHT22;10508;50.956;4.640;2023-04-03T17:04:06;11.30;69.20
20698;DHT22;10508;50.956;4.640;2023-04-03T17:06:32;11.20;69.00
20698;DHT22;10508;50.956;4.640;2023-04-03T17:08:58;11.10;69.20
20698;DHT22;10508;50.956;4.640;2023-04-03T17:11:23;10.90;68.90
20698;DHT22;10508;50.956;4.640;2023-04-03T17:13:50;11.00;69.40
20698;DHT22;10508;50.956;4.640;2023-04-03T17:16:16;10.90;68.40
20698;DHT22;10508;50.956;4.640;2023-04-03T17:18:42;11.00;70.50
20698;DHT22;10508;50.956;4.640;2023-04-03T17:21:08;10.90;70.10
20698;DHT22;10508;50.956;4.640;2023-04-03T17:23:36;10.80;70.90
20698;DHT22;10508;50.956;4.640;2023-04-03T17:26:03;10.70;71.10
20698;DHT22;10508;50.956;4.640;2023-04-03T17:28:29;10.70;71.40
20698;DHT22;10508;50.956;4.640;2023-04-03T17:31:13;10.60;71.80
20698;DHT22;10508;50.956;4.640;2023-04-03T17:33:39;10.40;71.60
20698;DHT22;10508;50.956;4.640;2023-04-03T17:36:05;10.30;72.80
20698;DHT22;10508;50.956;4.640;2023-04-03T17:38:33;10.50;73.20
20698;DHT22;10508;50.956;4.640;2023-04-03T17:41:00;10.60;74.70
20698;DHT22;10508;50.956;4.640;2023-04-03T17:43:27;10.50;72.10
20698;DHT22;10508;50.956;4.640;2023-04-03T17:45:53;10.40;71.70
20698;DHT22;10508;50.956;4.640;2023-04-03T17:48:30;10.30;71.80
20698;DHT22;10508;50.956;4.640;2023-04-03T17:50:56;10.10;71.70
20698;DHT22;10508;50.956;4.640;2023-04-03T17:53:21;10.30;73.00
20698;DHT22;10508;50.956;4.640;2023-04-03T17:55:50;10.10;73.80
20698;DHT22;10508;50.956;4.640;2023-04-03T17:58:15;10.00;73.10
20698;DHT22;10508;50.956;4.640;2023-04-03T18:00:41;10.10;73.30